createdAt,value
2018-03-14T00:01:05.856Z,8.63
2018-03-14T00:03:32.568Z,7.80
2018-03-14T00:05:59.950Z,8.63
2018-03-14T00:08:30.990Z,8.43
2018-03-14T00:10:59.228Z,8.20
2018-03-14T00:13:25.941Z,11.20
2018-03-14T00:15:56.347Z,7.80
2018-03-14T00:18:27.074Z,8.82
2018-03-14T00:20:53.768Z,8.77
2018-03-14T00:23:20.484Z,8.25
2018-03-14T00:25:47.368Z,7.72
2018-03-14T00:28:19.569Z,7.20
2018-03-14T00:30:46.723Z,7.43
2018-03-14T00:33:13.536Z,6.47
2018-03-14T00:35:41.140Z,7.55
2018-03-14T00:38:09.373Z,7.32
2018-03-14T00:40:36.044Z,5.68
2018-03-14T00:43:07.268Z,5.60
2018-03-14T00:45:34.030Z,6.10
2018-03-14T00:48:01.537Z,4.37
2018-03-14T00:50:32.524Z,4.68
2018-03-14T00:53:00.170Z,4.82
2018-03-14T00:55:29.560Z,4.95
2018-03-14T00:57:56.226Z,5.18
2018-03-14T01:00:23.551Z,5.70
2018-03-14T01:02:50.755Z,5.97
2018-03-14T01:05:18.618Z,4.93
2018-03-14T01:07:45.342Z,6.15
2018-03-14T01:10:14.105Z,6.62
2018-03-14T01:12:44.816Z,5.85
2018-03-14T01:15:12.496Z,6.47
2018-03-14T01:17:39.146Z,6.97
2018-03-14T01:20:05.829Z,6.43
2018-03-14T01:22:32.515Z,6.82
2018-03-14T01:25:02.753Z,9.35
2018-03-14T01:27:32.169Z,8.02
2018-03-14T01:29:59.651Z,8.00
2018-03-14T01:32:26.505Z,8.57
2018-03-14T01:34:57.377Z,8.05
2018-03-14T01:37:24.111Z,7.20
2018-03-14T01:39:55.353Z,7.65
2018-03-14T01:42:22.175Z,6.68
2018-03-14T01:44:49.778Z,7.20
2018-03-14T01:47:16.441Z,6.20
2018-03-14T01:49:46.727Z,7.20
2018-03-14T01:52:13.547Z,5.78
2018-03-14T01:54:41.050Z,6.25
2018-03-14T01:57:08.529Z,5.95
2018-03-14T01:59:39.443Z,6.60
2018-03-14T02:02:06.377Z,5.87
2018-03-14T02:04:41.591Z,5.93
2018-03-14T02:07:08.286Z,5.50
2018-03-14T02:09:35.005Z,5.87
2018-03-14T02:12:01.965Z,7.05
2018-03-14T02:14:28.709Z,6.18
2018-03-14T02:16:55.361Z,6.20
2018-03-14T02:19:26.393Z,5.78
2018-03-14T02:21:53.944Z,6.25
2018-03-14T02:24:20.769Z,6.80
2018-03-14T02:26:48.012Z,5.82
2018-03-14T02:29:15.617Z,5.65
2018-03-14T02:31:42.972Z,5.78
2018-03-14T02:34:09.685Z,6.12
2018-03-14T02:36:42.113Z,5.32
2018-03-14T02:48:53.802Z,5.53
2018-03-14T02:51:21.540Z,5.60
2018-03-14T02:53:49.139Z,5.15
2018-03-14T02:56:16.457Z,4.87
2018-03-14T02:58:43.213Z,6.35
2018-03-14T03:01:10.957Z,5.93
2018-03-14T03:03:37.699Z,5.07
2018-03-14T03:06:04.624Z,5.18
2018-03-14T03:08:32.316Z,6.25
2018-03-14T03:11:03.203Z,5.95
2018-03-14T03:13:30.622Z,5.35
2018-03-14T03:16:01.456Z,5.10
2018-03-14T03:18:28.148Z,5.07
2018-03-14T03:20:54.873Z,5.53
2018-03-14T03:23:22.978Z,5.47
2018-03-14T03:25:54.532Z,5.32
2018-03-14T03:28:21.182Z,5.03
2018-03-14T03:30:47.844Z,5.47
2018-03-14T03:33:14.536Z,5.15
2018-03-14T03:35:41.803Z,4.72
2018-03-14T03:38:08.468Z,5.60
2018-03-14T03:40:40.547Z,5.00
2018-03-14T03:43:07.187Z,5.32
2018-03-14T03:45:40.158Z,5.07
2018-03-14T03:48:06.831Z,4.45
2018-03-14T03:50:51.952Z,4.97
2018-03-14T03:53:22.639Z,4.80
2018-03-14T03:55:50.097Z,5.60
2018-03-14T03:58:17.548Z,5.30
2018-03-14T04:00:44.228Z,4.82
2018-03-14T04:03:14.917Z,4.50
2018-03-14T04:05:42.464Z,4.90
2018-03-14T04:08:10.080Z,4.30
2018-03-14T04:10:43.199Z,4.90
2018-03-14T04:13:10.390Z,4.80
2018-03-14T04:15:42.154Z,5.53
2018-03-14T04:18:09.933Z,5.32
2018-03-14T04:20:36.761Z,5.37
2018-03-14T04:23:03.688Z,5.57
2018-03-14T04:25:38.148Z,6.18
2018-03-14T04:28:06.813Z,6.20
2018-03-14T04:30:33.460Z,6.30
2018-03-14T04:33:00.166Z,6.25
2018-03-14T04:35:26.855Z,7.07
2018-03-14T04:37:53.635Z,6.50
2018-03-14T04:40:21.274Z,7.12
2018-03-14T04:42:52.173Z,6.43
2018-03-14T04:45:18.906Z,6.80
2018-03-14T04:47:46.276Z,6.55
2018-03-14T04:50:12.944Z,6.75
2018-03-14T04:52:40.209Z,7.15
2018-03-14T04:55:07.164Z,6.65
2018-03-14T04:57:43.901Z,7.70
2018-03-14T05:00:10.597Z,8.02
2018-03-14T05:02:42.120Z,7.05
2018-03-14T05:05:09.201Z,7.10
2018-03-14T05:07:37.423Z,7.37
2018-03-14T05:10:11.003Z,7.07
2018-03-14T05:12:41.361Z,6.28
2018-03-14T05:24:53.104Z,8.60
2018-03-14T05:27:19.744Z,6.87
2018-03-14T05:29:46.465Z,8.23
2018-03-14T05:32:13.247Z,9.13
2018-03-14T05:34:39.945Z,7.60
2018-03-14T05:37:10.568Z,7.22
2018-03-14T05:39:37.251Z,7.43
2018-03-14T05:42:03.983Z,7.72
2018-03-14T05:44:31.283Z,7.82
2018-03-14T05:47:02.124Z,7.87
2018-03-14T05:49:32.394Z,7.95
2018-03-14T05:51:59.053Z,7.47
2018-03-14T05:54:25.740Z,7.65
2018-03-14T05:56:52.464Z,8.07
2018-03-14T05:59:19.221Z,8.10
2018-03-14T06:01:54.220Z,7.50
2018-03-14T06:04:20.908Z,6.82
2018-03-14T06:06:47.584Z,9.23
2018-03-14T06:09:14.227Z,7.40
2018-03-14T06:11:40.860Z,7.55
2018-03-14T06:14:07.646Z,7.62
2018-03-14T06:16:34.392Z,7.53
2018-03-14T06:19:01.062Z,7.43
2018-03-14T06:21:28.460Z,7.70
2018-03-14T06:23:55.125Z,7.85
2018-03-14T06:26:21.789Z,7.75
2018-03-14T06:28:49.998Z,7.70
2018-03-14T06:31:19.401Z,7.40
2018-03-14T06:33:46.501Z,8.63
2018-03-14T06:36:20.148Z,6.62
2018-03-14T06:38:46.848Z,6.93
2018-03-14T06:41:13.494Z,7.12
2018-03-14T06:43:40.120Z,6.53
2018-03-14T06:46:06.732Z,7.25
2018-03-14T06:48:33.355Z,6.60
2018-03-14T06:51:00.863Z,7.15
2018-03-14T06:53:27.515Z,6.50
2018-03-14T06:55:54.131Z,6.55
2018-03-14T06:58:26.695Z,6.80
2018-03-14T07:00:59.278Z,6.40
2018-03-14T07:03:31.874Z,6.40
2018-03-14T07:06:14.344Z,7.00
2018-03-14T07:08:40.980Z,5.28
2018-03-14T07:11:07.650Z,6.00
2018-03-14T07:13:34.337Z,5.82
2018-03-14T07:16:01.117Z,6.32
2018-03-14T07:18:27.777Z,7.05
2018-03-14T07:20:54.419Z,6.20
2018-03-14T07:23:21.065Z,6.43
2018-03-14T07:25:47.713Z,5.85
2018-03-14T07:28:14.336Z,5.70
2018-03-14T07:30:40.965Z,5.87
2018-03-14T07:33:07.616Z,4.95
2018-03-14T07:35:34.248Z,5.50
2018-03-14T07:38:00.882Z,6.15
2018-03-14T07:40:27.544Z,5.00
2018-03-14T07:42:54.203Z,5.85
2018-03-14T07:45:20.900Z,4.25
2018-03-14T07:47:47.612Z,5.32
2018-03-14T07:50:14.274Z,5.50
2018-03-14T07:52:40.967Z,6.05
2018-03-14T07:55:07.572Z,5.20
2018-03-14T07:57:34.217Z,4.97
2018-03-14T08:00:00.890Z,4.60
2018-03-14T08:02:27.524Z,4.70
2018-03-14T08:04:54.161Z,5.57
2018-03-14T08:07:20.853Z,4.43
2018-03-14T08:09:47.602Z,5.10
2018-03-14T08:12:14.302Z,5.40
2018-03-14T08:14:40.975Z,5.25
2018-03-14T08:17:07.676Z,5.37
2018-03-14T08:19:34.317Z,4.80
2018-03-14T08:22:01.036Z,7.20
2018-03-14T08:24:27.661Z,5.45
2018-03-14T08:26:54.283Z,5.03
2018-03-14T08:29:20.992Z,4.82
2018-03-14T08:31:47.696Z,5.30
2018-03-14T08:34:14.382Z,5.05
2018-03-14T08:36:41.069Z,5.10
2018-03-14T08:39:07.922Z,5.28
2018-03-14T08:41:34.558Z,5.40
2018-03-14T08:44:01.207Z,5.78
2018-03-14T08:46:27.876Z,4.85
2018-03-14T08:48:54.563Z,5.00
2018-03-14T08:51:21.313Z,5.43
2018-03-14T08:53:48.226Z,5.35
2018-03-14T08:56:14.970Z,5.57
2018-03-14T08:58:41.852Z,6.35
2018-03-14T09:01:08.618Z,6.10
2018-03-14T09:03:35.254Z,6.15
2018-03-14T09:06:01.890Z,4.85
2018-03-14T09:08:28.553Z,5.68
2018-03-14T09:10:55.415Z,6.07
2018-03-14T09:13:22.255Z,6.03
2018-03-14T09:15:48.911Z,5.87
2018-03-14T09:18:15.661Z,5.80
2018-03-14T09:20:42.338Z,5.07
2018-03-14T09:23:08.972Z,5.22
2018-03-14T09:25:35.725Z,4.90
2018-03-14T09:28:02.378Z,4.70
2018-03-14T09:30:29.024Z,4.80
2018-03-14T09:32:55.680Z,5.62
2018-03-14T09:35:22.324Z,5.30
2018-03-14T09:37:48.968Z,5.10
2018-03-14T09:40:15.634Z,5.70
2018-03-14T09:42:42.349Z,6.10
2018-03-14T09:45:09.007Z,5.53
2018-03-14T09:47:35.652Z,4.75
2018-03-14T09:50:02.311Z,4.60
2018-03-14T09:52:28.952Z,4.18
2018-03-14T09:54:55.609Z,4.53
2018-03-14T09:57:22.244Z,4.45
2018-03-14T09:59:48.942Z,4.40
2018-03-14T10:02:15.590Z,4.30
2018-03-14T10:04:42.225Z,4.55
2018-03-14T10:07:08.948Z,4.55
2018-03-14T10:09:35.640Z,4.72
2018-03-14T10:12:02.291Z,5.35
2018-03-14T10:14:28.916Z,4.47
2018-03-14T10:16:55.535Z,4.43
2018-03-14T10:19:22.188Z,3.95
2018-03-14T10:21:48.856Z,3.40
2018-03-14T10:24:15.484Z,3.10
2018-03-14T10:26:42.101Z,3.83
2018-03-14T10:29:08.754Z,3.60
2018-03-14T10:31:35.468Z,3.92
2018-03-14T10:34:02.108Z,3.40
2018-03-14T10:36:28.728Z,3.42
2018-03-14T10:38:55.331Z,2.95
2018-03-14T10:41:22.026Z,2.33
2018-03-14T10:43:49.483Z,2.60
2018-03-14T10:46:16.174Z,2.40
2018-03-14T10:48:42.813Z,3.05
2018-03-14T10:51:17.304Z,2.58
2018-03-14T10:53:50.146Z,3.22
2018-03-14T10:56:18.728Z,3.45
2018-03-14T10:58:51.364Z,2.90
2018-03-14T11:01:18.061Z,2.72
2018-03-14T11:03:50.309Z,3.00
2018-03-14T11:06:18.121Z,3.22
2018-03-14T11:08:44.812Z,3.00
2018-03-14T11:11:13.385Z,2.72
2018-03-14T11:13:48.466Z,2.83
2018-03-14T11:16:21.015Z,2.60
2018-03-14T11:18:47.818Z,3.20
2018-03-14T11:21:23.157Z,2.15
2018-03-14T11:23:50.444Z,2.30
2018-03-14T11:26:17.976Z,2.85
2018-03-14T11:28:53.679Z,2.42
2018-03-14T11:31:25.218Z,2.97
2018-03-14T11:34:01.752Z,2.40
2018-03-14T11:36:43.028Z,3.78
2018-03-14T11:39:11.521Z,3.92
2018-03-14T11:41:39.660Z,2.10
2018-03-14T11:44:06.536Z,1.90
2018-03-14T11:46:34.316Z,1.52
2018-03-14T11:49:05.597Z,1.80
2018-03-14T11:51:39.348Z,1.95
2018-03-14T11:54:06.065Z,2.00
2018-03-14T11:56:34.049Z,2.42
2018-03-14T11:59:07.508Z,1.95
2018-03-14T12:01:36.903Z,1.87
2018-03-14T12:04:11.993Z,2.28
2018-03-14T12:06:42.975Z,1.92
2018-03-14T12:09:14.055Z,2.65
2018-03-14T12:11:41.344Z,2.55
2018-03-14T12:14:15.982Z,2.45
2018-03-14T12:16:46.388Z,2.00
2018-03-14T12:19:13.076Z,3.10
2018-03-14T12:21:47.242Z,2.42
2018-03-14T12:24:23.682Z,2.35
2018-03-14T12:26:55.543Z,2.28
2018-03-14T12:29:23.775Z,2.05
2018-03-14T12:31:50.729Z,2.90
2018-03-14T12:34:23.512Z,2.80
2018-03-14T12:36:50.234Z,3.00
2018-03-14T12:39:20.381Z,2.75
2018-03-14T12:41:47.532Z,2.40
2018-03-14T12:44:15.577Z,3.10
2018-03-14T12:46:46.507Z,2.85
2018-03-14T12:49:13.701Z,2.80
2018-03-14T12:51:44.364Z,2.95
2018-03-14T12:54:15.532Z,2.97
2018-03-14T12:56:42.307Z,2.65
2018-03-14T12:59:09.765Z,3.35
2018-03-14T13:01:36.531Z,3.00
2018-03-14T13:04:03.292Z,3.30
2018-03-14T13:06:34.121Z,2.85
2018-03-14T13:09:01.564Z,2.90
2018-03-14T13:11:28.331Z,3.28
2018-03-14T13:13:55.096Z,3.30
2018-03-14T13:16:21.723Z,3.10
2018-03-14T13:18:48.328Z,2.83
2018-03-14T13:21:14.985Z,3.15
2018-03-14T13:23:41.614Z,3.00
2018-03-14T13:26:08.282Z,2.92
2018-03-14T13:28:34.947Z,3.00
2018-03-14T13:31:01.605Z,3.22
2018-03-14T13:33:28.250Z,3.55
2018-03-14T13:35:54.968Z,3.15
2018-03-14T13:38:21.644Z,3.10
2018-03-14T13:40:48.336Z,2.90
2018-03-14T13:43:14.926Z,3.20
2018-03-14T13:45:41.567Z,3.10
2018-03-14T13:48:08.223Z,3.42
2018-03-14T13:50:34.852Z,3.53
2018-03-14T13:53:01.509Z,3.10
2018-03-14T13:55:28.128Z,3.22
2018-03-14T13:57:54.831Z,2.72
2018-03-14T14:00:21.461Z,3.20
2018-03-14T14:02:48.690Z,3.10
2018-03-14T14:05:15.389Z,3.30
2018-03-14T14:07:42.045Z,3.45
2018-03-14T14:10:08.796Z,2.50
2018-03-14T14:12:35.428Z,3.95
2018-03-14T14:15:02.139Z,2.87
2018-03-14T14:17:28.825Z,3.50
2018-03-14T14:19:55.462Z,3.00
2018-03-14T14:22:22.095Z,3.28
2018-03-14T14:24:48.732Z,3.55
2018-03-14T14:27:15.365Z,3.17
2018-03-14T14:29:42.111Z,3.40
2018-03-14T14:32:08.776Z,3.33
2018-03-14T14:34:35.479Z,3.08
2018-03-14T14:37:02.116Z,3.40
2018-03-14T14:39:28.761Z,3.03
2018-03-14T14:41:55.423Z,4.10
2018-03-14T14:44:22.088Z,3.50
2018-03-14T14:46:48.805Z,3.40
2018-03-14T14:49:15.575Z,3.08
2018-03-14T14:51:42.217Z,2.80
2018-03-14T14:54:08.913Z,3.05
2018-03-14T14:56:35.570Z,3.10
2018-03-14T14:59:02.261Z,3.50
2018-03-14T15:01:28.949Z,3.20
2018-03-14T15:03:55.600Z,3.25
2018-03-14T15:06:22.221Z,3.80
2018-03-14T15:08:48.844Z,3.37
2018-03-14T15:11:15.487Z,4.18
2018-03-14T15:13:43.076Z,3.70
2018-03-14T15:16:09.755Z,3.90
2018-03-14T15:18:36.417Z,4.00
2018-03-14T15:21:03.137Z,4.12
2018-03-14T15:23:30.346Z,4.18
2018-03-14T15:25:57.003Z,4.20
2018-03-14T15:28:23.642Z,4.00
2018-03-14T15:30:50.338Z,4.50
2018-03-14T15:33:17.107Z,4.03
2018-03-14T15:35:43.768Z,4.35
2018-03-14T15:38:10.484Z,3.85
2018-03-14T15:40:37.152Z,4.10
2018-03-14T15:43:03.826Z,3.80
2018-03-14T15:45:30.492Z,4.20
2018-03-14T15:47:57.131Z,4.00
2018-03-14T15:50:23.943Z,4.12
2018-03-14T15:52:50.625Z,3.90
2018-03-14T15:55:17.325Z,4.10
2018-03-14T15:57:43.954Z,3.55
2018-03-14T16:00:10.624Z,4.32
2018-03-14T16:02:37.290Z,4.40
2018-03-14T16:05:03.920Z,4.55
2018-03-14T16:07:30.600Z,4.65
2018-03-14T16:09:57.927Z,4.62
2018-03-14T16:12:24.625Z,4.05
2018-03-14T16:14:51.292Z,4.47
2018-03-14T16:17:17.920Z,4.45
2018-03-14T16:19:44.588Z,3.80
2018-03-14T16:22:11.283Z,3.85
2018-03-14T16:24:37.979Z,3.72
2018-03-14T16:27:04.610Z,4.10
2018-03-14T16:29:31.324Z,3.65
2018-03-14T16:31:57.986Z,3.95
2018-03-14T16:34:24.634Z,4.68
2018-03-14T16:36:51.431Z,5.80
2018-03-14T16:39:18.073Z,8.13
2018-03-14T16:41:44.717Z,7.30
2018-03-14T16:44:11.713Z,6.10
2018-03-14T16:46:38.347Z,5.72
2018-03-14T16:49:04.981Z,6.55
2018-03-14T16:51:31.607Z,6.32
2018-03-14T16:53:58.264Z,6.10
2018-03-14T16:56:25.392Z,5.03
2018-03-14T16:58:52.156Z,6.25
2018-03-14T17:01:18.803Z,6.97
2018-03-14T17:03:45.478Z,10.95
2018-03-14T17:06:12.194Z,9.93
2018-03-14T17:08:38.798Z,6.93
2018-03-14T17:11:05.456Z,7.30
2018-03-14T17:13:32.076Z,7.35
2018-03-14T17:15:58.732Z,8.35
2018-03-14T17:18:25.484Z,9.10
2018-03-14T17:20:52.134Z,8.40
2018-03-14T17:23:18.811Z,10.50
2018-03-14T17:25:45.497Z,9.13
2018-03-14T17:28:12.187Z,6.37
2018-03-14T17:30:38.808Z,7.12
2018-03-14T17:33:06.264Z,6.80
2018-03-14T17:35:32.905Z,9.00
2018-03-14T17:37:59.548Z,9.88
2018-03-14T17:40:26.189Z,8.73
2018-03-14T17:42:52.967Z,8.52
2018-03-14T17:45:19.677Z,9.38
2018-03-14T17:47:46.322Z,10.80
2018-03-14T17:50:12.982Z,8.10
2018-03-14T17:52:39.619Z,7.55
2018-03-14T17:55:06.236Z,7.53
2018-03-14T17:57:32.925Z,8.07
2018-03-14T17:59:59.572Z,6.43
2018-03-14T18:02:26.221Z,7.07
2018-03-14T18:04:53.776Z,6.97
2018-03-14T18:07:20.616Z,8.80
2018-03-14T18:09:55.161Z,7.40
2018-03-14T18:12:29.914Z,8.40
2018-03-14T18:15:00.363Z,10.65
2018-03-14T18:17:28.156Z,10.13
2018-03-14T18:19:55.529Z,10.30
2018-03-14T18:22:22.270Z,7.15
2018-03-14T18:24:52.696Z,6.80
2018-03-14T18:27:27.828Z,7.80
2018-03-14T18:29:55.119Z,7.45
2018-03-14T18:32:26.258Z,8.30
2018-03-14T18:34:56.110Z,7.40
2018-03-14T18:37:22.772Z,7.60
2018-03-14T18:39:49.769Z,9.10
2018-03-14T18:42:20.913Z,8.88
2018-03-14T18:44:48.409Z,7.72
2018-03-14T18:47:15.112Z,8.82
2018-03-14T18:49:41.807Z,7.45
2018-03-14T18:52:08.481Z,8.70
2018-03-14T18:54:35.733Z,9.15
2018-03-14T18:57:02.505Z,8.45
2018-03-14T18:59:29.268Z,6.93
2018-03-14T19:02:08.683Z,6.18
2018-03-14T19:04:39.385Z,7.70
2018-03-14T19:07:11.783Z,7.68
2018-03-14T19:09:40.689Z,8.82
2018-03-14T19:12:08.256Z,6.90
2018-03-14T19:14:35.503Z,5.95
2018-03-14T19:17:02.779Z,5.47
2018-03-14T19:19:34.547Z,5.75
2018-03-14T19:22:02.257Z,6.12
2018-03-14T19:24:37.557Z,5.78
2018-03-14T19:27:08.168Z,5.50
2018-03-14T19:29:35.515Z,5.72
2018-03-14T19:32:04.268Z,5.70
2018-03-14T19:34:31.027Z,5.95
2018-03-14T19:36:57.970Z,5.30
2018-03-14T19:39:26.253Z,5.80
2018-03-14T19:41:53.699Z,6.18
2018-03-14T19:44:21.842Z,6.07
2018-03-14T19:46:48.618Z,6.82
2018-03-14T19:49:16.413Z,5.80
2018-03-14T19:51:43.903Z,6.10
2018-03-14T19:54:10.616Z,6.25
2018-03-14T19:56:42.036Z,6.10
2018-03-14T19:59:10.074Z,5.80
2018-03-14T20:01:36.795Z,5.97
2018-03-14T20:04:07.777Z,6.18
2018-03-14T20:06:38.758Z,6.15
2018-03-14T20:09:11.425Z,6.85
2018-03-14T20:11:39.530Z,7.22
2018-03-14T20:14:06.229Z,6.70
2018-03-14T20:16:33.484Z,5.65
2018-03-14T20:19:00.517Z,6.62
2018-03-14T20:21:28.842Z,7.18
2018-03-14T20:23:57.107Z,6.72
2018-03-14T20:26:23.838Z,6.10
2018-03-14T20:28:54.342Z,5.45
2018-03-14T20:31:21.024Z,5.60
2018-03-14T20:33:47.742Z,7.35
2018-03-14T20:36:19.255Z,6.47
2018-03-14T20:38:45.958Z,5.03
2018-03-14T20:41:16.683Z,5.97
2018-03-14T20:43:47.473Z,6.45
2018-03-14T20:46:14.875Z,4.60
2018-03-14T20:48:41.559Z,5.70
2018-03-14T20:51:08.675Z,5.75
2018-03-14T20:53:36.139Z,5.72
2018-03-14T20:56:02.873Z,5.47
2018-03-14T20:58:29.556Z,6.50
2018-03-14T21:00:56.212Z,6.10
2018-03-14T21:03:23.353Z,6.72
2018-03-14T21:05:50.106Z,6.90
2018-03-14T21:08:16.762Z,7.57
2018-03-14T21:10:43.436Z,7.12
2018-03-14T21:13:10.096Z,6.22
2018-03-14T21:15:37.667Z,6.10
2018-03-14T21:18:04.341Z,6.10
2018-03-14T21:20:31.868Z,6.40
2018-03-14T21:22:59.275Z,5.28
2018-03-14T21:25:26.007Z,6.18
2018-03-14T21:27:52.860Z,7.30
2018-03-14T21:30:19.563Z,5.37
2018-03-14T21:32:46.966Z,5.43
2018-03-14T21:35:13.673Z,5.82
2018-03-14T21:37:40.347Z,5.72
2018-03-14T21:40:07.753Z,5.90
2018-03-14T21:42:34.459Z,5.50
2018-03-14T21:45:01.173Z,6.72
2018-03-14T21:47:29.965Z,5.70
2018-03-14T21:49:57.050Z,7.45
2018-03-14T21:52:25.564Z,5.70
2018-03-14T21:54:52.527Z,6.25
2018-03-14T21:57:21.518Z,6.20
2018-03-14T21:59:48.220Z,6.15
2018-03-14T22:02:14.957Z,5.80
2018-03-14T22:04:42.365Z,6.60
2018-03-14T22:07:09.799Z,5.75
2018-03-14T22:09:36.668Z,6.62
2018-03-14T22:12:03.352Z,6.03
2018-03-14T22:14:29.988Z,5.97
2018-03-14T22:16:58.196Z,5.50
2018-03-14T22:19:24.910Z,5.95
2018-03-14T22:21:55.619Z,6.22
2018-03-14T22:24:22.285Z,5.70
2018-03-14T22:26:49.547Z,5.93
2018-03-14T22:29:16.913Z,6.35
2018-03-14T22:31:48.324Z,6.18
2018-03-14T22:34:19.120Z,5.43
2018-03-14T22:36:45.777Z,5.78
2018-03-14T22:39:12.468Z,5.78
2018-03-14T22:41:39.122Z,5.97
2018-03-14T22:44:05.768Z,5.55
2018-03-14T22:46:32.455Z,6.28
2018-03-14T22:48:59.078Z,7.15
2018-03-14T22:51:25.841Z,6.57
2018-03-14T22:53:53.111Z,6.00
2018-03-14T22:56:19.815Z,5.55
2018-03-14T22:58:46.493Z,5.90
2018-03-14T23:01:17.229Z,6.20
2018-03-14T23:03:43.883Z,6.47
2018-03-14T23:06:10.582Z,7.95
2018-03-14T23:08:37.212Z,6.75
2018-03-14T23:11:03.888Z,6.68
2018-03-14T23:13:30.512Z,7.10
2018-03-14T23:15:57.268Z,7.70
2018-03-14T23:18:23.900Z,7.30
2018-03-14T23:20:54.512Z,7.95
2018-03-14T23:23:25.072Z,6.72
2018-03-14T23:25:51.699Z,8.23
2018-03-14T23:28:18.361Z,7.97
2018-03-14T23:30:46.325Z,7.18
2018-03-14T23:33:13.496Z,7.07
2018-03-14T23:35:41.091Z,6.95
2018-03-14T23:38:09.108Z,8.65
2018-03-14T23:40:36.337Z,7.57
2018-03-14T23:43:02.977Z,7.62
2018-03-14T23:45:29.629Z,7.78
2018-03-14T23:47:56.752Z,8.93
2018-03-14T23:50:27.555Z,6.30
2018-03-14T23:52:54.715Z,7.47
2018-03-14T23:55:21.352Z,8.15
2018-03-14T23:57:48.988Z,7.50
